Time;durP1;ratioP1;P1;durP2;ratioP2;P2;SDS_P1;SDS_P2;PMS_P1;PMS_P2;Temp;Humidity;BMP_temperature;BMP_pressure;BME280_temperature;BME280_humidity;BME280_pressure;Samples;Min_cycle;Max_cycle;Signal;HPM_P1;HPM_P2
2022/07/18 05:27:48;;;;;;;;;;;;;;;;;;5022091;23;20095;-63
2022/07/18 05:30:15;;;;;;;5.72;2.30;;;;;;;;;;4896502;29;19946;-62
2022/07/18 05:32:42;;;;;;;6.10;2.78;;;;;;;;;;4879045;29;20334;-64
2022/07/18 05:35:08;;;;;;;3.70;2.05;;;;;;;;;;4896215;29;20753;-60
2022/07/18 05:37:38;;;;;;;4.18;2.33;;;;;;;;;;4896082;29;20421;-63
2022/07/18 05:40:05;;;;;;;4.93;2.42;;;;;;;;;;4896078;29;20025;-62
2022/07/18 05:42:31;;;;;;;4.63;2.15;;;;;;;;;;4895302;29;20020;-62
2022/07/18 05:44:57;;;;;;;9.43;2.65;;;;;;;;;;4895073;29;20036;-62
2022/07/18 05:47:23;;;;;;;4.47;2.30;;;;;;;;;;4894781;29;20458;-62
2022/07/18 05:49:49;;;;;;;8.13;3.03;;;;;;;;;;4895276;29;20056;-63
2022/07/18 05:52:15;;;;;;;5.18;2.30;;;;;;;;;;4894518;29;20028;-62
2022/07/18 05:54:41;;;;;;;9.73;3.03;;;;;;;;;;4894771;29;20044;-61
2022/07/18 05:57:07;;;;;;;7.53;2.90;;;;;;;;;;4894413;29;20036;-62
2022/07/18 05:59:33;;;;;;;26.27;3.78;;;;;;;;;;4896023;29;20072;-62
2022/07/18 06:01:59;;;;;;;25.13;3.90;;;;;;;;;;4895881;29;20080;-62
2022/07/18 06:04:25;;;;;;;24.58;3.53;;;;;;;;;;4895846;29;20021;-61
2022/07/18 06:06:51;;;;;;;5.93;2.20;;;;;;;;;;4896019;29;20040;-61
2022/07/18 06:09:17;;;;;;;9.55;2.40;;;;;;;;;;4900536;29;20059;-61
2022/07/18 06:11:44;;;;;;;11.98;3.08;;;;;;;;;;4914395;29;20040;-61
2022/07/18 06:14:10;;;;;;;20.45;7.82;;;;;;;;;;4914521;29;20403;-61
2022/07/18 06:16:36;;;;;;;22.77;8.40;;;;;;;;;;4914798;29;20032;-61
2022/07/18 06:19:03;;;;;;;14.98;5.18;;;;;;;;;;4914847;29;20420;-61
2022/07/18 06:21:29;;;;;;;15.05;4.85;;;;;;;;;;4914910;29;20036;-62
2022/07/18 06:23:56;;;;;;;5.63;2.45;;;;;;;;;;4914871;29;20032;-60
2022/07/18 06:26:22;;;;;;;5.00;2.05;;;;;;;;;;4915145;29;20493;-61
2022/07/18 06:28:48;;;;;;;7.20;2.30;;;;;;;;;;4917991;29;20120;-61
2022/07/18 06:31:18;;;;;;;11.45;2.75;;;;;;;;;;4918185;29;20114;-61
2022/07/18 06:33:44;;;;;;;6.45;2.47;;;;;;;;;;4918196;29;20032;-60
2022/07/18 06:36:11;;;;;;;6.38;2.40;;;;;;;;;;4918170;29;20078;-60
2022/07/18 06:38:38;;;;;;;8.00;2.58;;;;;;;;;;4918143;29;20020;-60
2022/07/18 06:41:05;;;;;;;9.88;2.80;;;;;;;;;;4917747;29;20455;-60
2022/07/18 06:43:31;;;;;;;7.93;2.75;;;;;;;;;;4917842;29;20102;-61
2022/07/18 06:45:57;;;;;;;8.38;3.08;;;;;;;;;;4917837;29;20040;-60
2022/07/18 06:48:24;;;;;;;8.25;2.90;;;;;;;;;;4918158;29;20031;-61
2022/07/18 06:50:50;;;;;;;9.13;3.00;;;;;;;;;;4917787;29;20032;-60
2022/07/18 06:53:16;;;;;;;10.00;3.05;;;;;;;;;;4917754;29;20103;-60
2022/07/18 06:55:42;;;;;;;9.52;2.17;;;;;;;;;;4917841;29;20028;-62
2022/07/18 06:58:09;;;;;;;8.55;2.60;;;;;;;;;;4917558;29;20043;-59
2022/07/18 07:00:35;;;;;;;10.35;2.50;;;;;;;;;;4917540;29;20489;-59
2022/07/18 07:03:01;;;;;;;6.68;2.20;;;;;;;;;;4917799;29;20047;-60
2022/07/18 07:05:27;;;;;;;6.35;2.20;;;;;;;;;;4917596;29;20429;-61
2022/07/18 07:07:53;;;;;;;7.05;3.10;;;;;;;;;;4917373;29;20076;-60
2022/07/18 07:10:20;;;;;;;7.13;2.30;;;;;;;;;;4917696;29;20032;-60
2022/07/18 07:12:48;;;;;;;9.10;2.53;;;;;;;;;;4917061;29;20029;-61
2022/07/18 07:15:15;;;;;;;6.10;2.15;;;;;;;;;;4917126;29;20084;-61
2022/07/18 07:17:41;;;;;;;5.88;2.13;;;;;;;;;;4900372;29;20388;-61
2022/07/18 07:20:08;;;;;;;7.97;2.15;;;;;;;;;;4917555;29;20035;-62
2022/07/18 07:22:47;;;;;;;5.82;2.03;;;;;;;;;;4917210;29;20024;-61
2022/07/18 07:25:14;;;;;;;7.90;2.80;;;;;;;;;;4916856;29;20016;-60
2022/07/18 07:27:40;;;;;;;3.63;1.65;;;;;;;;;;4916583;29;20103;-61
2022/07/18 07:30:07;;;;;;;4.68;2.20;;;;;;;;;;4900478;29;20507;-61
2022/07/18 07:32:36;;;;;;;5.75;2.00;;;;;;;;;;4916972;29;20090;-61
2022/07/18 07:35:06;;;;;;;4.90;2.85;;;;;;;;;;4917568;29;20036;-60
2022/07/18 07:37:36;;;;;;;6.72;3.28;;;;;;;;;;4917038;29;20103;-60
2022/07/18 07:40:02;;;;;;;7.93;3.15;;;;;;;;;;4917073;29;20036;-61
2022/07/18 07:42:28;;;;;;;5.43;2.53;;;;;;;;;;4916616;29;20076;-62
2022/07/18 07:44:54;;;;;;;8.30;4.40;;;;;;;;;;4916935;29;20032;-61
2022/07/18 07:47:20;;;;;;;8.15;3.90;;;;;;;;;;4916562;29;20024;-62
2022/07/18 07:49:46;;;;;;;9.77;4.22;;;;;;;;;;4899654;29;20048;-61
2022/07/18 07:52:13;;;;;;;6.47;3.45;;;;;;;;;;4907338;29;20032;-61
2022/07/18 07:54:39;;;;;;;12.05;4.10;;;;;;;;;;4906836;29;20044;-60
2022/07/18 07:57:06;;;;;;;11.68;3.50;;;;;;;;;;4905344;29;20025;-59
2022/07/18 07:59:32;;;;;;;8.60;3.55;;;;;;;;;;4906036;29;20024;-59
2022/07/18 08:01:59;;;;;;;6.40;3.42;;;;;;;;;;4906920;29;20043;-62
2022/07/18 08:04:25;;;;;;;8.98;2.90;;;;;;;;;;4905567;29;20024;-61
2022/07/18 08:06:51;;;;;;;8.85;3.15;;;;;;;;;;4905621;29;20028;-59
2022/07/18 08:09:17;;;;;;;7.28;3.42;;;;;;;;;;4906756;29;20477;-59
2022/07/18 08:11:43;;;;;;;11.68;3.10;;;;;;;;;;4904630;29;20032;-60
2022/07/18 08:14:09;;;;;;;7.88;2.97;;;;;;;;;;4905412;29;20036;-59
2022/07/18 08:16:35;;;;;;;6.35;2.85;;;;;;;;;;4906285;29;20099;-61
2022/07/18 08:19:01;;;;;;;4.50;2.35;;;;;;;;;;4904374;29;20076;-59
2022/07/18 08:21:27;;;;;;;7.38;2.60;;;;;;;;;;4906143;29;20020;-61
2022/07/18 08:23:53;;;;;;;8.90;2.60;;;;;;;;;;4902429;29;20044;-58
2022/07/18 08:26:19;;;;;;;5.20;2.35;;;;;;;;;;4906894;29;20037;-59
2022/07/18 08:28:46;;;;;;;4.82;2.10;;;;;;;;;;4915861;29;20046;-61
2022/07/18 08:31:12;;;;;;;4.88;2.05;;;;;;;;;;4916430;29;20020;-61
2022/07/18 08:33:38;;;;;;;5.50;1.63;;;;;;;;;;4907011;29;20059;-60
2022/07/18 08:36:04;;;;;;;3.30;1.50;;;;;;;;;;4916096;29;20397;-60
2022/07/18 08:38:30;;;;;;;3.35;1.67;;;;;;;;;;4900094;29;20054;-60
2022/07/18 08:40:57;;;;;;;3.45;1.63;;;;;;;;;;4902587;29;20507;-58
2022/07/18 08:43:25;;;;;;;4.07;1.50;;;;;;;;;;4904386;29;20032;-60
2022/07/18 08:45:52;;;;;;;4.05;1.85;;;;;;;;;;4915809;29;20057;-59
2022/07/18 08:48:18;;;;;;;4.68;1.80;;;;;;;;;;4915688;29;20036;-59
2022/07/18 08:50:45;;;;;;;5.97;1.80;;;;;;;;;;4914463;29;20044;-59
2022/07/18 08:53:12;;;;;;;3.53;1.52;;;;;;;;;;4915777;29;20046;-59
2022/07/18 08:55:38;;;;;;;2.83;1.40;;;;;;;;;;4915555;29;20064;-59
2022/07/18 08:58:04;;;;;;;3.28;1.40;;;;;;;;;;4915484;29;20507;-59
2022/07/18 09:00:30;;;;;;;5.68;1.42;;;;;;;;;;4915623;29;20443;-60
2022/07/18 09:03:00;;;;;;;2.63;1.30;;;;;;;;;;4915418;29;20032;-59
2022/07/18 09:05:26;;;;;;;4.63;1.38;;;;;;;;;;4915268;29;20307;-60
2022/07/18 09:07:52;;;;;;;6.82;2.10;;;;;;;;;;4915558;29;20080;-59
2022/07/18 09:10:18;;;;;;;6.53;2.30;;;;;;;;;;4915343;29;20484;-58
2022/07/18 09:12:55;;;;;;;5.85;2.55;;;;;;;;;;4914378;29;20103;-59
2022/07/18 09:15:22;;;;;;;4.45;1.42;;;;;;;;;;4897391;29;20054;-59
2022/07/18 09:17:50;;;;;;;4.72;1.45;;;;;;;;;;4896146;29;20029;-59
2022/07/18 09:20:16;;;;;;;1.73;1.20;;;;;;;;;;4896414;29;20127;-59
2022/07/18 09:22:47;;;;;;;12.77;5.38;;;;;;;;;;4896254;29;20067;-59
2022/07/18 09:25:16;;;;;;;4.18;1.55;;;;;;;;;;4898062;29;20095;-58
2022/07/18 09:27:43;;;;;;;3.47;1.30;;;;;;;;;;4914543;29;20052;-58
2022/07/18 09:30:18;;;;;;;2.55;1.30;;;;;;;;;;4914861;29;20024;-59
2022/07/18 09:32:46;;;;;;;1.67;1.35;;;;;;;;;;4906330;29;20033;-59
2022/07/18 09:35:14;;;;;;;2.47;1.20;;;;;;;;;;4902580;29;20036;-59
2022/07/18 09:37:40;;;;;;;2.95;1.40;;;;;;;;;;4906466;29;20499;-59
2022/07/18 09:40:19;;;;;;;3.80;1.33;;;;;;;;;;4905008;29;20071;-59
2022/07/18 09:42:55;;;;;;;6.75;2.03;;;;;;;;;;4904933;29;20480;-60
2022/07/18 09:45:22;;;;;;;7.28;2.72;;;;;;;;;;4913473;29;20072;-60
2022/07/18 09:47:50;;;;;;;4.22;1.88;;;;;;;;;;4914388;29;20032;-60
2022/07/18 09:50:23;;;;;;;3.60;1.40;;;;;;;;;;4914283;29;20028;-60
2022/07/18 09:52:57;;;;;;;4.03;1.33;;;;;;;;;;4914748;29;20387;-60
2022/07/18 09:55:23;;;;;;;3.60;1.45;;;;;;;;;;4913121;29;20048;-59
2022/07/18 09:58:06;;;;;;;5.07;1.73;;;;;;;;;;4904123;29;20029;-59
2022/07/18 10:00:37;;;;;;;2.95;1.48;;;;;;;;;;4903422;29;20029;-59
2022/07/18 10:03:04;;;;;;;4.33;1.17;;;;;;;;;;4904325;29;20037;-59
2022/07/18 10:05:32;;;;;;;3.83;1.30;;;;;;;;;;4911627;29;20058;-60
2022/07/18 10:07:59;;;;;;;2.78;1.00;;;;;;;;;;4912465;29;20051;-59
2022/07/18 10:10:25;;;;;;;3.30;1.10;;;;;;;;;;4907394;29;20031;-59
2022/07/18 10:12:54;;;;;;;3.97;1.17;;;;;;;;;;4908704;29;20028;-59
2022/07/18 10:15:22;;;;;;;2.15;1.13;;;;;;;;;;4913556;29;20556;-59
2022/07/18 10:17:48;;;;;;;3.05;1.40;;;;;;;;;;4909136;29;20028;-59
2022/07/18 10:20:14;;;;;;;2.45;1.23;;;;;;;;;;4907876;29;20422;-59
2022/07/18 10:22:44;;;;;;;5.18;1.60;;;;;;;;;;4906666;29;20028;-59
2022/07/18 10:25:14;;;;;;;3.15;1.50;;;;;;;;;;4907109;29;20139;-59
2022/07/18 10:27:48;;;;;;;4.20;1.42;;;;;;;;;;4906090;29;20377;-59
2022/07/18 10:30:14;;;;;;;7.18;1.65;;;;;;;;;;4906391;29;20541;-59
2022/07/18 10:32:40;;;;;;;3.55;1.40;;;;;;;;;;4906125;29;20032;-60
2022/07/18 10:35:07;;;;;;;3.03;1.63;;;;;;;;;;4908636;29;20054;-59
2022/07/18 10:37:33;;;;;;;2.25;1.20;;;;;;;;;;4907334;29;20025;-60
2022/07/18 10:40:20;;;;;;;4.43;1.40;;;;;;;;;;4906448;29;20032;-60
2022/07/18 10:42:46;;;;;;;3.17;1.40;;;;;;;;;;4893019;29;20467;-60
2022/07/18 10:45:42;;;;;;;2.55;1.27;;;;;;;;;;4918041;29;20032;-60
2022/07/18 10:48:26;;;;;;;3.60;1.35;;;;;;;;;;4917846;29;20544;-60
2022/07/18 10:51:02;;;;;;;1.67;1.15;;;;;;;;;;4915570;29;20169;-59
2022/07/18 10:53:47;;;;;;;3.38;1.30;;;;;;;;;;4904909;29;20080;-59
2022/07/18 10:56:13;;;;;;;4.88;1.17;;;;;;;;;;4904577;29;20477;-59
2022/07/18 10:58:40;;;;;;;5.03;1.67;;;;;;;;;;4898433;29;20430;-59
2022/07/18 11:01:10;;;;;;;2.75;1.23;;;;;;;;;;4898586;29;20064;-59
2022/07/18 11:03:36;;;;;;;4.40;1.40;;;;;;;;;;4898549;29;20032;-59
2022/07/18 11:06:02;;;;;;;3.20;1.40;;;;;;;;;;4898843;29;20063;-59
2022/07/18 11:08:31;;;;;;;5.20;1.95;;;;;;;;;;4898649;29;20029;-59
2022/07/18 11:11:03;;;;;;;4.72;1.55;;;;;;;;;;4902086;29;20099;-59
2022/07/18 11:13:30;;;;;;;;;;;;;;;;;;4915431;29;20032;-59
2022/07/18 11:16:07;;;;;;;3.22;1.40;;;;;;;;;;4904458;29;19911;-59
2022/07/18 11:18:53;;;;;;;3.13;1.33;;;;;;;;;;4903575;29;20358;-59
2022/07/18 11:21:23;;;;;;;2.15;1.40;;;;;;;;;;4898876;29;20029;-59
2022/07/18 11:23:51;;;;;;;4.63;2.03;;;;;;;;;;4898456;29;20454;-59
2022/07/18 11:26:18;;;;;;;5.93;2.25;;;;;;;;;;4905552;29;20104;-59
2022/07/18 11:28:46;;;;;;;5.40;2.10;;;;;;;;;;4912803;29;20386;-59
2022/07/18 11:31:12;;;;;;;6.43;1.90;;;;;;;;;;4917227;29;20076;-59
2022/07/18 11:33:40;;;;;;;4.25;1.85;;;;;;;;;;4916808;29;20392;-59
2022/07/18 11:39:10;;;;;;;6.88;2.00;;;;;;;;;;4916574;29;20040;-59
2022/07/18 11:41:37;;;;;;;5.35;2.38;;;;;;;;;;4916965;29;20021;-59
2022/07/18 11:44:03;;;;;;;4.88;1.70;;;;;;;;;;4916598;29;20028;-60
2022/07/18 11:46:29;;;;;;;3.70;1.50;;;;;;;;;;4916389;29;20068;-60
2022/07/18 11:48:59;;;;;;;2.25;1.50;;;;;;;;;;4910412;29;20024;-59
2022/07/18 11:51:26;;;;;;;2.58;1.50;;;;;;;;;;4916914;29;20063;-60
2022/07/18 11:53:53;;;;;;;2.95;1.33;;;;;;;;;;4916375;29;20396;-59
2022/07/18 11:56:20;;;;;;;3.28;1.50;;;;;;;;;;4916535;29;20644;-59
2022/07/18 11:58:48;;;;;;;2.65;1.40;;;;;;;;;;4916437;29;20107;-59
2022/07/18 12:01:14;;;;;;;6.35;2.05;;;;;;;;;;4914536;29;20024;-59
2022/07/18 12:03:41;;;;;;;4.32;1.40;;;;;;;;;;4910967;29;20028;-59
2022/07/18 12:06:11;;;;;;;4.65;1.70;;;;;;;;;;4901999;29;20041;-59
2022/07/18 12:08:44;;;;;;;3.10;1.38;;;;;;;;;;4897530;29;20484;-60
2022/07/18 12:11:14;;;;;;;3.90;1.95;;;;;;;;;;4897644;29;20052;-59
2022/07/18 12:14:00;;;;;;;3.90;1.58;;;;;;;;;;4897432;29;20035;-59
2022/07/18 12:16:26;;;;;;;4.00;1.40;;;;;;;;;;4897423;29;20145;-59
2022/07/18 12:18:53;;;;;;;6.20;1.40;;;;;;;;;;4897349;29;20053;-59
2022/07/18 12:21:20;;;;;;;6.55;1.67;;;;;;;;;;4901974;29;20459;-59
2022/07/18 12:23:46;;;;;;;2.85;1.65;;;;;;;;;;4905431;29;20036;-59
2022/07/18 12:26:28;;;;;;;2.95;1.20;;;;;;;;;;4905040;29;20504;-59
2022/07/18 12:29:04;;;;;;;3.15;1.30;;;;;;;;;;4902262;29;20573;-59
2022/07/18 12:31:43;;;;;;;10.18;1.70;;;;;;;;;;4904178;29;20469;-59
2022/07/18 12:34:09;;;;;;;4.50;1.55;;;;;;;;;;4904230;29;20040;-59
2022/07/18 12:36:50;;;;;;;3.70;1.60;;;;;;;;;;4904430;29;20032;-59
2022/07/18 12:39:25;;;;;;;6.57;1.67;;;;;;;;;;4899586;29;20035;-59
2022/07/18 12:41:52;;;;;;;5.93;1.77;;;;;;;;;;4896964;29;20130;-59
2022/07/18 12:44:18;;;;;;;5.95;1.65;;;;;;;;;;4896606;29;20047;-59
2022/07/18 12:46:44;;;;;;;4.65;1.85;;;;;;;;;;4896895;29;20043;-59
2022/07/18 12:49:10;;;;;;;4.03;1.73;;;;;;;;;;4897103;29;20103;-59
2022/07/18 12:51:36;;;;;;;6.63;1.75;;;;;;;;;;4897000;29;20084;-59
2022/07/18 12:54:02;;;;;;;5.18;1.60;;;;;;;;;;4896869;29;20048;-60
2022/07/18 12:56:28;;;;;;;5.28;1.80;;;;;;;;;;4896863;29;20071;-59
2022/07/18 12:58:55;;;;;;;4.10;1.50;;;;;;;;;;4896921;29;20088;-59
2022/07/18 13:01:21;;;;;;;9.38;1.73;;;;;;;;;;4896661;29;20028;-60
2022/07/18 13:03:47;;;;;;;3.60;1.42;;;;;;;;;;4896798;29;20044;-59
2022/07/18 13:06:13;;;;;;;5.43;1.35;;;;;;;;;;4896705;29;20059;-59
2022/07/18 13:08:39;;;;;;;4.15;1.50;;;;;;;;;;4896726;29;20029;-59
2022/07/18 13:11:05;;;;;;;5.93;1.65;;;;;;;;;;4896794;29;20032;-59
2022/07/18 13:13:31;;;;;;;5.25;1.67;;;;;;;;;;4896154;29;20037;-60
2022/07/18 13:15:57;;;;;;;6.07;1.80;;;;;;;;;;4896694;29;20079;-59
2022/07/18 13:18:24;;;;;;;5.07;1.40;;;;;;;;;;4879377;29;20366;-59
2022/07/18 13:20:50;;;;;;;4.45;1.80;;;;;;;;;;4896694;29;20036;-60
2022/07/18 13:23:16;;;;;;;3.58;1.42;;;;;;;;;;4896354;29;20052;-59
2022/07/18 13:25:42;;;;;;;4.45;1.60;;;;;;;;;;4895857;29;20243;-59
2022/07/18 13:28:08;;;;;;;4.47;1.60;;;;;;;;;;4895827;29;20061;-60
2022/07/18 13:30:34;;;;;;;5.07;1.65;;;;;;;;;;4896249;29;20111;-59
2022/07/18 13:33:00;;;;;;;2.88;1.42;;;;;;;;;;4896213;29;20055;-60
2022/07/18 13:35:26;;;;;;;4.05;1.40;;;;;;;;;;4895814;29;20119;-60
2022/07/18 13:37:52;;;;;;;4.32;1.63;;;;;;;;;;4896286;29;20532;-59
2022/07/18 13:40:18;;;;;;;2.80;1.50;;;;;;;;;;4896224;29;20382;-59
2022/07/18 13:42:44;;;;;;;4.10;1.58;;;;;;;;;;4895996;29;20477;-60
2022/07/18 13:45:13;;;;;;;4.68;1.60;;;;;;;;;;4895955;29;20512;-59
2022/07/18 13:47:41;;;;;;;6.50;1.77;;;;;;;;;;4896012;29;20020;-59
2022/07/18 13:50:07;;;;;;;4.30;1.67;;;;;;;;;;4896020;29;20088;-59
2022/07/18 13:52:34;;;;;;;3.80;1.60;;;;;;;;;;4896066;29;20060;-58
2022/07/18 13:55:00;;;;;;;3.58;1.63;;;;;;;;;;4895936;29;20040;-59
2022/07/18 13:57:26;;;;;;;4.85;1.80;;;;;;;;;;4896185;29;20032;-59
2022/07/18 13:59:52;;;;;;;3.45;1.50;;;;;;;;;;4896055;29;20034;-59
2022/07/18 14:02:18;;;;;;;4.88;1.75;;;;;;;;;;4895591;29;20025;-59
2022/07/18 14:04:45;;;;;;;3.67;1.50;;;;;;;;;;4895786;29;20072;-59
2022/07/18 14:07:11;;;;;;;2.63;1.50;;;;;;;;;;4895984;29;20028;-59
2022/07/18 14:09:38;;;;;;;5.70;1.70;;;;;;;;;;4895803;29;20125;-59
2022/07/18 14:12:04;;;;;;;4.75;1.50;;;;;;;;;;4895913;29;20024;-59
2022/07/18 14:14:31;;;;;;;6.53;1.55;;;;;;;;;;4895671;29;20041;-58
2022/07/18 14:16:57;;;;;;;6.05;1.70;;;;;;;;;;4895724;29;20043;-59
2022/07/18 14:19:23;;;;;;;4.80;1.75;;;;;;;;;;4895601;29;20021;-59
2022/07/18 14:21:49;;;;;;;6.60;2.00;;;;;;;;;;4895919;29;20039;-58
2022/07/18 14:24:15;;;;;;;4.28;1.65;;;;;;;;;;4895518;29;20120;-58
2022/07/18 14:26:41;;;;;;;6.68;1.73;;;;;;;;;;4895172;29;20411;-57
2022/07/18 14:29:07;;;;;;;3.63;1.45;;;;;;;;;;4895633;29;20033;-58
2022/07/18 14:31:34;;;;;;;4.80;1.45;;;;;;;;;;4895911;29;20033;-58
2022/07/18 14:34:00;;;;;;;5.72;1.63;;;;;;;;;;4895928;29;20132;-59
2022/07/18 14:36:26;;;;;;;3.45;1.50;;;;;;;;;;4895648;29;20056;-60
2022/07/18 14:38:52;;;;;;;4.70;1.70;;;;;;;;;;4895830;29;20037;-58
2022/07/18 14:41:18;;;;;;;4.75;1.70;;;;;;;;;;4895870;29;20041;-59
2022/07/18 14:43:44;;;;;;;2.53;1.60;;;;;;;;;;4895326;29;20111;-59
2022/07/18 14:46:10;;;;;;;3.28;1.52;;;;;;;;;;4895692;29;20102;-60
2022/07/18 14:48:36;;;;;;;6.05;1.80;;;;;;;;;;4897861;29;20039;-59
2022/07/18 14:51:03;;;;;;;5.90;1.95;;;;;;;;;;4899215;29;20412;-59
2022/07/18 14:53:29;;;;;;;4.18;1.65;;;;;;;;;;4899015;29;20478;-59
2022/07/18 14:55:55;;;;;;;1.85;1.38;;;;;;;;;;4899094;29;20040;-59
2022/07/18 14:58:21;;;;;;;3.13;1.30;;;;;;;;;;4898880;29;20537;-59
2022/07/18 15:00:47;;;;;;;3.20;1.40;;;;;;;;;;4898832;29;20126;-59
2022/07/18 15:03:13;;;;;;;2.78;1.80;;;;;;;;;;4898802;29;20485;-59
2022/07/18 15:05:39;;;;;;;6.45;1.63;;;;;;;;;;4898616;29;20115;-59
2022/07/18 15:08:06;;;;;;;5.10;1.58;;;;;;;;;;4898900;29;20076;-60
2022/07/18 15:10:32;;;;;;;5.75;1.55;;;;;;;;;;4898655;29;20033;-59
2022/07/18 15:12:58;;;;;;;4.20;1.58;;;;;;;;;;4898617;29;20029;-59
2022/07/18 15:15:25;;;;;;;3.53;1.58;;;;;;;;;;4898380;29;20033;-59
2022/07/18 15:17:51;;;;;;;3.33;1.50;;;;;;;;;;4898113;29;20029;-59
2022/07/18 15:20:17;;;;;;;2.40;1.50;;;;;;;;;;4898378;29;20390;-59
2022/07/18 15:22:44;;;;;;;6.63;1.50;;;;;;;;;;4897761;29;20036;-59
2022/07/18 15:25:10;;;;;;;2.42;1.50;;;;;;;;;;4898331;29;20021;-58
2022/07/18 15:27:36;;;;;;;3.25;1.30;;;;;;;;;;4898072;29;20053;-59
2022/07/18 15:30:02;;;;;;;3.78;1.50;;;;;;;;;;4898386;29;20032;-60
2022/07/18 15:32:28;;;;;;;2.38;1.30;;;;;;;;;;4897819;29;20033;-59
2022/07/18 15:34:54;;;;;;;3.58;1.67;;;;;;;;;;4897120;29;20036;-60
2022/07/18 15:37:20;;;;;;;5.75;1.38;;;;;;;;;;4894828;29;20025;-58
2022/07/18 15:39:46;;;;;;;2.78;1.30;;;;;;;;;;4897715;29;20028;-59
2022/07/18 15:42:12;;;;;;;2.28;1.33;;;;;;;;;;4897397;29;20056;-59
2022/07/18 15:44:39;;;;;;;2.83;1.40;;;;;;;;;;4906686;29;20032;-59
2022/07/18 15:47:06;;;;;;;4.70;1.30;;;;;;;;;;4906910;29;20043;-59
2022/07/18 15:49:33;;;;;;;5.43;1.30;;;;;;;;;;4905891;29;20037;-59
2022/07/18 15:51:59;;;;;;;3.83;1.45;;;;;;;;;;4906267;29;20068;-59
2022/07/18 15:54:25;;;;;;;3.28;1.20;;;;;;;;;;4897339;29;20037;-59
2022/07/18 15:56:51;;;;;;;2.97;1.30;;;;;;;;;;4906991;29;20028;-58
2022/07/18 15:59:17;;;;;;;4.10;1.20;;;;;;;;;;4905880;29;20024;-60
2022/07/18 16:01:44;;;;;;;4.57;1.15;;;;;;;;;;4900570;29;20028;-59
2022/07/18 16:04:10;;;;;;;4.47;1.20;;;;;;;;;;4898476;29;20036;-59
2022/07/18 16:06:36;;;;;;;2.53;1.17;;;;;;;;;;4903631;29;20036;-58
2022/07/18 16:09:03;;;;;;;2.50;1.15;;;;;;;;;;4906696;29;20056;-59
2022/07/18 16:11:29;;;;;;;4.55;1.25;;;;;;;;;;4906668;29;20083;-62
2022/07/18 16:13:55;;;;;;;7.90;1.48;;;;;;;;;;4905616;29;20536;-59
2022/07/18 16:16:21;;;;;;;3.30;1.05;;;;;;;;;;4910750;29;20440;-59
2022/07/18 16:18:47;;;;;;;3.90;1.10;;;;;;;;;;4903247;29;20040;-59
2022/07/18 16:21:13;;;;;;;3.15;0.98;;;;;;;;;;4907074;29;20047;-60
2022/07/18 16:23:40;;;;;;;3.63;1.23;;;;;;;;;;4905024;29;20076;-58
2022/07/18 16:26:07;;;;;;;3.80;1.20;;;;;;;;;;4905181;29;20036;-59
2022/07/18 16:28:33;;;;;;;3.00;1.27;;;;;;;;;;4905708;29;20096;-59
2022/07/18 16:30:59;;;;;;;2.67;1.00;;;;;;;;;;4907239;29;20036;-59
2022/07/18 16:33:25;;;;;;;3.80;0.95;;;;;;;;;;4904619;29;20028;-59
2022/07/18 16:35:51;;;;;;;3.67;0.93;;;;;;;;;;4903357;29;20064;-59
2022/07/18 16:38:17;;;;;;;2.17;1.20;;;;;;;;;;4897063;29;20033;-59
2022/07/18 16:40:43;;;;;;;2.78;1.20;;;;;;;;;;4897078;29;20089;-59
2022/07/18 16:43:09;;;;;;;5.75;1.40;;;;;;;;;;4896851;29;20405;-59
2022/07/18 16:45:36;;;;;;;2.38;1.20;;;;;;;;;;4896725;29;20028;-59
2022/07/18 16:48:02;;;;;;;1.85;1.20;;;;;;;;;;4896500;29;20088;-59
2022/07/18 16:50:28;;;;;;;2.78;1.38;;;;;;;;;;4896811;29;20076;-59
2022/07/18 16:52:54;;;;;;;1.75;1.10;;;;;;;;;;4897013;29;20044;-59
2022/07/18 16:55:20;;;;;;;2.83;1.00;;;;;;;;;;4896570;29;20104;-59
2022/07/18 16:57:48;;;;;;;3.60;1.20;;;;;;;;;;4896411;29;20055;-59
2022/07/18 17:00:14;;;;;;;9.05;1.58;;;;;;;;;;4914621;29;20031;-59
2022/07/18 17:02:40;;;;;;;4.20;1.27;;;;;;;;;;4915047;29;20024;-59
2022/07/18 17:05:07;;;;;;;2.67;1.40;;;;;;;;;;4915573;29;20024;-58
2022/07/18 17:07:33;;;;;;;3.10;1.25;;;;;;;;;;4915631;29;20033;-59
2022/07/18 17:09:59;;;;;;;3.10;1.38;;;;;;;;;;4915017;29;20064;-58
2022/07/18 17:12:25;;;;;;;3.08;0.90;;;;;;;;;;4915720;29;20028;-58
2022/07/18 17:14:55;;;;;;;2.75;1.40;;;;;;;;;;4915030;29;20051;-59
2022/07/18 17:17:22;;;;;;;2.63;1.17;;;;;;;;;;4915336;29;20355;-58
2022/07/18 17:19:48;;;;;;;3.45;1.23;;;;;;;;;;4915261;29;20032;-58
2022/07/18 17:22:16;;;;;;;3.05;1.10;;;;;;;;;;4915139;29;20039;-58
2022/07/18 17:24:43;;;;;;;2.80;1.30;;;;;;;;;;4915152;29;20111;-58
2022/07/18 17:27:09;;;;;;;2.15;1.20;;;;;;;;;;4914841;29;20064;-59
2022/07/18 17:29:35;;;;;;;3.33;1.23;;;;;;;;;;4914926;29;20072;-59
2022/07/18 17:32:01;;;;;;;3.53;1.30;;;;;;;;;;4914863;29;20036;-58
2022/07/18 17:34:28;;;;;;;5.10;1.40;;;;;;;;;;4914884;29;20052;-57
2022/07/18 17:36:54;;;;;;;3.70;1.15;;;;;;;;;;4915285;29;20094;-58
2022/07/18 17:39:20;;;;;;;2.92;1.10;;;;;;;;;;4915400;29;20498;-59
2022/07/18 17:41:47;;;;;;;2.92;1.10;;;;;;;;;;4914980;29;20043;-59
2022/07/18 17:44:13;;;;;;;6.47;1.38;;;;;;;;;;4914524;29;20512;-59
2022/07/18 17:46:39;;;;;;;4.57;1.10;;;;;;;;;;4914228;29;20032;-58
2022/07/18 17:49:05;;;;;;;3.85;1.73;;;;;;;;;;4914318;29;20056;-59
2022/07/18 17:51:31;;;;;;;4.15;1.30;;;;;;;;;;4914772;29;20055;-58
2022/07/18 17:53:57;;;;;;;3.75;1.77;;;;;;;;;;4914274;29;20036;-59
2022/07/18 17:56:24;;;;;;;4.63;1.58;;;;;;;;;;4914467;29;20042;-59
2022/07/18 17:58:50;;;;;;;4.93;1.95;;;;;;;;;;4912392;29;20032;-58
2022/07/18 18:01:17;;;;;;;5.97;1.88;;;;;;;;;;4914250;29;20103;-58
2022/07/18 18:03:48;;;;;;;4.45;1.75;;;;;;;;;;4914926;29;20047;-59
2022/07/18 18:06:15;;;;;;;4.85;2.22;;;;;;;;;;4890063;29;20024;-58
2022/07/18 18:08:41;;;;;;;3.53;1.60;;;;;;;;;;4893966;29;20085;-58
2022/07/18 18:11:07;;;;;;;5.32;1.77;;;;;;;;;;4894959;29;20037;-58
2022/07/18 18:13:33;;;;;;;4.57;2.15;;;;;;;;;;4894100;29;20028;-59
2022/07/18 18:15:59;;;;;;;7.43;1.90;;;;;;;;;;4894493;29;20033;-58
2022/07/18 18:18:25;;;;;;;3.97;1.95;;;;;;;;;;4894418;29;20028;-59
2022/07/18 18:20:51;;;;;;;5.78;1.80;;;;;;;;;;4894543;29;20036;-58
2022/07/18 18:23:17;;;;;;;4.57;1.95;;;;;;;;;;4899794;29;20032;-60
2022/07/18 18:25:43;;;;;;;6.25;1.77;;;;;;;;;;4898722;29;20039;-59
2022/07/18 18:28:09;;;;;;;7.82;2.28;;;;;;;;;;4899992;29;20044;-60
2022/07/18 18:30:40;;;;;;;5.78;2.35;;;;;;;;;;4909245;29;20032;-59
2022/07/18 18:33:06;;;;;;;5.82;2.28;;;;;;;;;;4898882;29;20115;-60
2022/07/18 18:35:32;;;;;;;4.03;2.15;;;;;;;;;;4909823;29;20100;-59
2022/07/18 18:37:58;;;;;;;6.70;2.30;;;;;;;;;;4899304;29;20111;-59
2022/07/18 18:40:24;;;;;;;11.25;2.83;;;;;;;;;;4898533;29;20437;-58
2022/07/18 18:42:51;;;;;;;3.85;2.10;;;;;;;;;;4898588;29;20461;-59
2022/07/18 18:45:17;;;;;;;7.22;2.53;;;;;;;;;;4898374;29;20123;-58
2022/07/18 18:47:43;;;;;;;6.57;2.60;;;;;;;;;;4898610;29;20116;-58
2022/07/18 18:50:10;;;;;;;7.65;2.60;;;;;;;;;;4898560;29;20028;-59
2022/07/18 18:52:38;;;;;;;8.10;3.22;;;;;;;;;;4898481;29;20087;-59
2022/07/18 18:55:05;;;;;;;5.03;3.00;;;;;;;;;;4900315;29;20033;-62
2022/07/18 18:57:32;;;;;;;10.88;3.58;;;;;;;;;;4904076;29;20165;-58
2022/07/18 18:59:59;;;;;;;10.50;3.53;;;;;;;;;;4897006;29;20075;-59
2022/07/18 19:02:26;;;;;;;12.02;3.90;;;;;;;;;;4905434;29;20064;-59
2022/07/18 19:04:53;;;;;;;9.20;4.22;;;;;;;;;;4887000;29;20111;-58
2022/07/18 19:07:19;;;;;;;9.13;3.78;;;;;;;;;;4902671;29;20036;-58
2022/07/18 19:09:45;;;;;;;8.82;3.72;;;;;;;;;;4897176;29;20076;-60
2022/07/18 19:12:11;;;;;;;9.35;3.63;;;;;;;;;;4898231;29;20020;-58
2022/07/18 19:14:38;;;;;;;12.90;3.53;;;;;;;;;;4898410;29;20036;-58
2022/07/18 19:17:04;;;;;;;8.70;3.72;;;;;;;;;;4898324;29;20029;-59
2022/07/18 19:19:30;;;;;;;8.40;3.92;;;;;;;;;;4898671;29;20143;-59
2022/07/18 19:21:56;;;;;;;8.00;3.83;;;;;;;;;;4898506;29;20029;-58
2022/07/18 19:24:22;;;;;;;7.32;3.70;;;;;;;;;;4898274;29;20028;-59
2022/07/18 19:26:49;;;;;;;8.35;4.30;;;;;;;;;;4897852;29;20028;-60
2022/07/18 19:29:15;;;;;;;11.15;6.38;;;;;;;;;;4891057;29;20459;-59
2022/07/18 19:31:41;;;;;;;10.60;5.45;;;;;;;;;;4917109;29;20099;-60
2022/07/18 19:34:07;;;;;;;22.00;11.48;;;;;;;;;;4916461;29;20094;-60
2022/07/18 19:36:33;;;;;;;16.52;8.30;;;;;;;;;;4917138;29;20035;-58
2022/07/18 19:38:59;;;;;;;13.77;7.03;;;;;;;;;;4916990;29;20024;-59
2022/07/18 19:41:25;;;;;;;23.98;8.25;;;;;;;;;;4913025;29;20029;-59
2022/07/18 19:43:51;;;;;;;20.27;8.88;;;;;;;;;;4905447;29;20027;-60
2022/07/18 19:46:17;;;;;;;19.60;10.18;;;;;;;;;;4904288;29;20056;-59
2022/07/18 19:48:45;;;;;;;15.38;8.48;;;;;;;;;;4899995;29;20033;-59
2022/07/18 19:51:11;;;;;;;19.60;9.68;;;;;;;;;;4897963;29;20445;-58
2022/07/18 19:53:37;;;;;;;15.95;9.02;;;;;;;;;;4899969;29;20040;-60
2022/07/18 19:56:03;;;;;;;13.70;9.07;;;;;;;;;;4905583;29;20119;-59
2022/07/18 19:58:29;;;;;;;17.15;9.10;;;;;;;;;;4909114;29;20048;-58
2022/07/18 20:00:55;;;;;;;19.10;9.95;;;;;;;;;;4916576;29;20056;-59
2022/07/18 20:03:22;;;;;;;21.60;9.90;;;;;;;;;;4912255;29;20794;-59
2022/07/18 20:05:48;;;;;;;18.63;9.57;;;;;;;;;;4905844;29;20033;-59
2022/07/18 20:08:14;;;;;;;20.98;9.55;;;;;;;;;;4904871;29;20052;-58
2022/07/18 20:10:40;;;;;;;20.63;9.35;;;;;;;;;;4902163;29;20544;-57
2022/07/18 20:13:07;;;;;;;19.77;8.88;;;;;;;;;;4897787;29;20025;-58